sensor_id;sensor_type;location;lat;lon;timestamp;P1;durP1;ratioP1;P2;durP2;ratioP2
3704;SDS011;1868;48.918;9.438;2024-02-23T00:01:40;2.93;;;0.30;;
3704;SDS011;1868;48.918;9.438;2024-02-23T00:04:09;0.93;;;0.33;;
3704;SDS011;1868;48.918;9.438;2024-02-23T00:06:39;0.70;;;0.30;;
3704;SDS011;1868;48.918;9.438;2024-02-23T00:09:07;1.13;;;0.30;;
3704;SDS011;1868;48.918;9.438;2024-02-23T00:11:40;0.40;;;0.27;;
3704;SDS011;1868;48.918;9.438;2024-02-23T00:14:11;1.53;;;0.40;;
3704;SDS011;1868;48.918;9.438;2024-02-23T00:16:40;1.27;;;0.30;;
3704;SDS011;1868;48.918;9.438;2024-02-23T00:19:09;0.60;;;0.30;;
3704;SDS011;1868;48.918;9.438;2024-02-23T00:21:39;0.63;;;0.30;;
3704;SDS011;1868;48.918;9.438;2024-02-23T00:24:08;1.07;;;0.37;;
3704;SDS011;1868;48.918;9.438;2024-02-23T00:26:37;1.27;;;0.40;;
3704;SDS011;1868;48.918;9.438;2024-02-23T00:29:08;0.33;;;0.33;;
3704;SDS011;1868;48.918;9.438;2024-02-23T00:31:37;0.50;;;0.50;;
3704;SDS011;1868;48.918;9.438;2024-02-23T00:34:08;1.33;;;0.40;;
3704;SDS011;1868;48.918;9.438;2024-02-23T00:36:38;0.50;;;0.27;;
3704;SDS011;1868;48.918;9.438;2024-02-23T00:39:08;1.47;;;0.70;;
3704;SDS011;1868;48.918;9.438;2024-02-23T00:41:37;0.30;;;0.30;;
3704;SDS011;1868;48.918;9.438;2024-02-23T00:44:08;0.70;;;0.40;;
3704;SDS011;1868;48.918;9.438;2024-02-23T00:46:37;0.80;;;0.30;;
3704;SDS011;1868;48.918;9.438;2024-02-23T00:49:06;3.60;;;0.30;;
3704;SDS011;1868;48.918;9.438;2024-02-23T00:51:35;1.53;;;0.37;;
3704;SDS011;1868;48.918;9.438;2024-02-23T00:54:04;1.47;;;0.43;;
3704;SDS011;1868;48.918;9.438;2024-02-23T00:56:34;0.47;;;0.23;;
3704;SDS011;1868;48.918;9.438;2024-02-23T00:59:18;0.30;;;0.30;;
3704;SDS011;1868;48.918;9.438;2024-02-23T01:01:47;5.43;;;0.40;;
3704;SDS011;1868;48.918;9.438;2024-02-23T01:04:16;2.90;;;0.60;;
3704;SDS011;1868;48.918;9.438;2024-02-23T01:06:45;1.70;;;0.47;;
3704;SDS011;1868;48.918;9.438;2024-02-23T01:09:15;1.20;;;0.40;;
3704;SDS011;1868;48.918;9.438;2024-02-23T01:11:47;2.83;;;0.50;;
3704;SDS011;1868;48.918;9.438;2024-02-23T01:14:17;0.40;;;0.30;;
3704;SDS011;1868;48.918;9.438;2024-02-23T01:16:47;0.60;;;0.60;;
3704;SDS011;1868;48.918;9.438;2024-02-23T01:19:17;2.20;;;0.73;;
3704;SDS011;1868;48.918;9.438;2024-02-23T01:21:46;1.70;;;0.37;;
3704;SDS011;1868;48.918;9.438;2024-02-23T01:24:15;2.70;;;0.70;;
3704;SDS011;1868;48.918;9.438;2024-02-23T01:26:44;1.60;;;0.50;;
3704;SDS011;1868;48.918;9.438;2024-02-23T01:29:13;0.90;;;0.40;;
3704;SDS011;1868;48.918;9.438;2024-02-23T01:31:46;1.17;;;0.57;;
3704;SDS011;1868;48.918;9.438;2024-02-23T01:34:15;2.40;;;0.63;;
3704;SDS011;1868;48.918;9.438;2024-02-23T01:36:44;0.30;;;0.30;;
3704;SDS011;1868;48.918;9.438;2024-02-23T01:39:12;1.90;;;0.50;;
3704;SDS011;1868;48.918;9.438;2024-02-23T01:41:45;2.90;;;0.60;;
3704;SDS011;1868;48.918;9.438;2024-02-23T01:44:14;2.73;;;0.60;;
3704;SDS011;1868;48.918;9.438;2024-02-23T01:46:44;3.93;;;1.10;;
3704;SDS011;1868;48.918;9.438;2024-02-23T01:49:14;1.33;;;0.53;;
3704;SDS011;1868;48.918;9.438;2024-02-23T01:51:43;0.63;;;0.37;;
3704;SDS011;1868;48.918;9.438;2024-02-23T01:54:12;1.43;;;0.33;;
3704;SDS011;1868;48.918;9.438;2024-02-23T01:56:41;2.77;;;0.43;;
3704;SDS011;1868;48.918;9.438;2024-02-23T01:59:10;3.93;;;0.80;;
3704;SDS011;1868;48.918;9.438;2024-02-23T02:01:40;2.50;;;0.40;;
3704;SDS011;1868;48.918;9.438;2024-02-23T02:04:13;3.50;;;0.40;;
3704;SDS011;1868;48.918;9.438;2024-02-23T02:06:44;1.30;;;0.40;;
3704;SDS011;1868;48.918;9.438;2024-02-23T02:09:14;0.70;;;0.33;;
3704;SDS011;1868;48.918;9.438;2024-02-23T02:11:45;0.70;;;0.40;;
3704;SDS011;1868;48.918;9.438;2024-02-23T02:14:15;0.97;;;0.40;;
3704;SDS011;1868;48.918;9.438;2024-02-23T02:16:44;1.47;;;0.60;;
3704;SDS011;1868;48.918;9.438;2024-02-23T02:19:16;4.67;;;0.90;;
3704;SDS011;1868;48.918;9.438;2024-02-23T02:21:45;2.93;;;0.70;;
3704;SDS011;1868;48.918;9.438;2024-02-23T02:24:13;7.23;;;0.47;;
3704;SDS011;1868;48.918;9.438;2024-02-23T02:26:43;2.23;;;0.43;;
3704;SDS011;1868;48.918;9.438;2024-02-23T02:29:14;1.00;;;0.40;;
3704;SDS011;1868;48.918;9.438;2024-02-23T02:31:42;3.77;;;0.50;;
3704;SDS011;1868;48.918;9.438;2024-02-23T02:34:12;2.20;;;0.50;;
3704;SDS011;1868;48.918;9.438;2024-02-23T02:36:43;2.70;;;0.40;;
3704;SDS011;1868;48.918;9.438;2024-02-23T02:39:12;4.20;;;0.50;;
3704;SDS011;1868;48.918;9.438;2024-02-23T02:41:41;3.00;;;0.60;;
3704;SDS011;1868;48.918;9.438;2024-02-23T02:44:10;1.27;;;0.40;;
3704;SDS011;1868;48.918;9.438;2024-02-23T02:46:40;1.27;;;0.50;;
3704;SDS011;1868;48.918;9.438;2024-02-23T02:49:12;1.53;;;0.50;;
3704;SDS011;1868;48.918;9.438;2024-02-23T02:51:41;1.70;;;0.53;;
3704;SDS011;1868;48.918;9.438;2024-02-23T02:54:12;2.40;;;0.70;;
3704;SDS011;1868;48.918;9.438;2024-02-23T02:56:42;1.13;;;0.40;;
3704;SDS011;1868;48.918;9.438;2024-02-23T02:59:12;1.80;;;0.40;;
3704;SDS011;1868;48.918;9.438;2024-02-23T03:01:41;9.37;;;0.90;;
3704;SDS011;1868;48.918;9.438;2024-02-23T03:04:10;1.60;;;0.50;;
3704;SDS011;1868;48.918;9.438;2024-02-23T03:06:40;2.37;;;0.60;;
3704;SDS011;1868;48.918;9.438;2024-02-23T03:09:10;0.70;;;0.50;;
3704;SDS011;1868;48.918;9.438;2024-02-23T03:11:38;9.60;;;0.90;;
3704;SDS011;1868;48.918;9.438;2024-02-23T03:14:07;2.30;;;0.60;;
3704;SDS011;1868;48.918;9.438;2024-02-23T03:16:39;3.97;;;0.60;;
3704;SDS011;1868;48.918;9.438;2024-02-23T03:19:08;1.37;;;1.27;;
3704;SDS011;1868;48.918;9.438;2024-02-23T03:21:38;1.20;;;0.33;;
3704;SDS011;1868;48.918;9.438;2024-02-23T03:24:07;4.00;;;0.40;;
3704;SDS011;1868;48.918;9.438;2024-02-23T03:26:37;2.90;;;0.67;;
3704;SDS011;1868;48.918;9.438;2024-02-23T03:29:08;1.90;;;0.80;;
3704;SDS011;1868;48.918;9.438;2024-02-23T03:31:38;1.60;;;0.50;;
3704;SDS011;1868;48.918;9.438;2024-02-23T03:34:07;1.50;;;0.60;;
3704;SDS011;1868;48.918;9.438;2024-02-23T03:36:37;6.63;;;0.70;;
3704;SDS011;1868;48.918;9.438;2024-02-23T03:39:06;1.40;;;0.80;;
3704;SDS011;1868;48.918;9.438;2024-02-23T03:41:38;0.73;;;0.53;;
3704;SDS011;1868;48.918;9.438;2024-02-23T03:44:08;0.67;;;0.40;;
3704;SDS011;1868;48.918;9.438;2024-02-23T03:46:37;1.37;;;0.50;;
3704;SDS011;1868;48.918;9.438;2024-02-23T03:49:08;3.13;;;0.70;;
3704;SDS011;1868;48.918;9.438;2024-02-23T03:51:37;0.43;;;0.40;;
3704;SDS011;1868;48.918;9.438;2024-02-23T03:54:06;1.50;;;0.50;;
3704;SDS011;1868;48.918;9.438;2024-02-23T03:56:39;3.10;;;0.60;;
3704;SDS011;1868;48.918;9.438;2024-02-23T03:59:09;3.50;;;0.80;;
3704;SDS011;1868;48.918;9.438;2024-02-23T04:01:38;2.87;;;0.80;;
3704;SDS011;1868;48.918;9.438;2024-02-23T04:04:07;2.20;;;0.43;;
3704;SDS011;1868;48.918;9.438;2024-02-23T04:06:36;0.93;;;0.50;;
3704;SDS011;1868;48.918;9.438;2024-02-23T04:09:06;3.40;;;1.50;;
3704;SDS011;1868;48.918;9.438;2024-02-23T04:11:35;6.13;;;3.00;;
3704;SDS011;1868;48.918;9.438;2024-02-23T04:14:06;9.40;;;4.40;;
3704;SDS011;1868;48.918;9.438;2024-02-23T04:16:35;4.37;;;2.40;;
3704;SDS011;1868;48.918;9.438;2024-02-23T04:19:04;1.53;;;1.17;;
3704;SDS011;1868;48.918;9.438;2024-02-23T04:21:38;1.03;;;0.60;;
3704;SDS011;1868;48.918;9.438;2024-02-23T04:24:07;2.03;;;0.80;;
3704;SDS011;1868;48.918;9.438;2024-02-23T04:26:36;1.23;;;0.63;;
3704;SDS011;1868;48.918;9.438;2024-02-23T04:29:07;1.37;;;0.60;;
3704;SDS011;1868;48.918;9.438;2024-02-23T04:31:39;3.20;;;0.50;;
3704;SDS011;1868;48.918;9.438;2024-02-23T04:34:08;2.47;;;0.90;;
3704;SDS011;1868;48.918;9.438;2024-02-23T04:36:37;2.63;;;0.83;;
3704;SDS011;1868;48.918;9.438;2024-02-23T04:39:06;1.80;;;1.00;;
3704;SDS011;1868;48.918;9.438;2024-02-23T04:41:35;0.97;;;0.77;;
3704;SDS011;1868;48.918;9.438;2024-02-23T04:44:04;0.93;;;0.43;;
3704;SDS011;1868;48.918;9.438;2024-02-23T04:46:34;0.53;;;0.50;;
3704;SDS011;1868;48.918;9.438;2024-02-23T04:49:03;0.40;;;0.40;;
3704;SDS011;1868;48.918;9.438;2024-02-23T04:51:32;0.90;;;0.43;;
3704;SDS011;1868;48.918;9.438;2024-02-23T04:54:01;1.10;;;0.97;;
3704;SDS011;1868;48.918;9.438;2024-02-23T04:56:30;1.07;;;0.50;;
3704;SDS011;1868;48.918;9.438;2024-02-23T04:59:01;2.43;;;0.83;;
3704;SDS011;1868;48.918;9.438;2024-02-23T05:01:36;0.70;;;0.47;;
3704;SDS011;1868;48.918;9.438;2024-02-23T05:04:04;1.70;;;0.53;;
3704;SDS011;1868;48.918;9.438;2024-02-23T05:06:33;0.90;;;0.40;;
3704;SDS011;1868;48.918;9.438;2024-02-23T05:09:03;2.67;;;0.80;;
3704;SDS011;1868;48.918;9.438;2024-02-23T05:11:35;2.20;;;0.40;;
3704;SDS011;1868;48.918;9.438;2024-02-23T05:14:04;1.47;;;0.50;;
3704;SDS011;1868;48.918;9.438;2024-02-23T05:16:33;0.60;;;0.40;;
3704;SDS011;1868;48.918;9.438;2024-02-23T05:19:05;1.10;;;0.63;;
3704;SDS011;1868;48.918;9.438;2024-02-23T05:21:35;1.50;;;0.90;;
3704;SDS011;1868;48.918;9.438;2024-02-23T05:24:05;3.50;;;0.53;;
3704;SDS011;1868;48.918;9.438;2024-02-23T05:26:34;1.50;;;0.60;;
3704;SDS011;1868;48.918;9.438;2024-02-23T05:29:03;0.73;;;0.63;;
3704;SDS011;1868;48.918;9.438;2024-02-23T05:31:48;2.33;;;0.70;;
3704;SDS011;1868;48.918;9.438;2024-02-23T05:34:20;0.50;;;0.50;;
3704;SDS011;1868;48.918;9.438;2024-02-23T05:36:49;2.63;;;0.73;;
3704;SDS011;1868;48.918;9.438;2024-02-23T05:39:18;2.50;;;0.80;;
3704;SDS011;1868;48.918;9.438;2024-02-23T05:41:47;0.77;;;0.57;;
3704;SDS011;1868;48.918;9.438;2024-02-23T05:44:16;1.13;;;0.90;;
3704;SDS011;1868;48.918;9.438;2024-02-23T05:46:47;1.60;;;0.50;;
3704;SDS011;1868;48.918;9.438;2024-02-23T05:49:16;2.17;;;0.80;;
3704;SDS011;1868;48.918;9.438;2024-02-23T05:51:50;5.03;;;0.77;;
3704;SDS011;1868;48.918;9.438;2024-02-23T05:54:19;4.87;;;0.73;;
3704;SDS011;1868;48.918;9.438;2024-02-23T05:56:48;7.03;;;0.67;;
3704;SDS011;1868;48.918;9.438;2024-02-23T05:59:17;6.80;;;0.57;;
3704;SDS011;1868;48.918;9.438;2024-02-23T06:01:50;0.83;;;0.43;;
3704;SDS011;1868;48.918;9.438;2024-02-23T06:04:24;4.47;;;1.17;;
3704;SDS011;1868;48.918;9.438;2024-02-23T06:06:55;4.70;;;0.90;;
3704;SDS011;1868;48.918;9.438;2024-02-23T06:09:29;4.63;;;1.00;;
3704;SDS011;1868;48.918;9.438;2024-02-23T06:12:00;1.07;;;0.70;;
3704;SDS011;1868;48.918;9.438;2024-02-23T06:14:36;1.80;;;1.10;;
3704;SDS011;1868;48.918;9.438;2024-02-23T06:17:08;2.60;;;0.87;;
3704;SDS011;1868;48.918;9.438;2024-02-23T06:19:36;3.80;;;0.70;;
3704;SDS011;1868;48.918;9.438;2024-02-23T06:22:05;1.20;;;0.70;;
3704;SDS011;1868;48.918;9.438;2024-02-23T06:24:36;0.87;;;0.50;;
3704;SDS011;1868;48.918;9.438;2024-02-23T06:27:05;2.80;;;0.87;;
3704;SDS011;1868;48.918;9.438;2024-02-23T06:29:35;1.87;;;0.70;;
3704;SDS011;1868;48.918;9.438;2024-02-23T06:32:05;3.13;;;0.70;;
3704;SDS011;1868;48.918;9.438;2024-02-23T06:34:35;2.07;;;0.63;;
3704;SDS011;1868;48.918;9.438;2024-02-23T06:37:04;1.63;;;0.60;;
3704;SDS011;1868;48.918;9.438;2024-02-23T06:39:33;1.60;;;0.70;;
3704;SDS011;1868;48.918;9.438;2024-02-23T06:42:03;1.03;;;0.70;;
3704;SDS011;1868;48.918;9.438;2024-02-23T06:44:32;6.87;;;1.00;;
3704;SDS011;1868;48.918;9.438;2024-02-23T06:47:01;11.73;;;0.90;;
3704;SDS011;1868;48.918;9.438;2024-02-23T06:49:33;1.47;;;0.90;;
3704;SDS011;1868;48.918;9.438;2024-02-23T06:52:02;5.87;;;0.90;;
3704;SDS011;1868;48.918;9.438;2024-02-23T06:54:31;1.00;;;0.70;;
3704;SDS011;1868;48.918;9.438;2024-02-23T06:57:00;6.53;;;0.80;;
3704;SDS011;1868;48.918;9.438;2024-02-23T06:59:32;4.33;;;1.40;;
3704;SDS011;1868;48.918;9.438;2024-02-23T07:02:01;8.10;;;0.93;;
3704;SDS011;1868;48.918;9.438;2024-02-23T07:04:30;2.23;;;0.70;;
3704;SDS011;1868;48.918;9.438;2024-02-23T07:07:02;2.90;;;0.80;;
3704;SDS011;1868;48.918;9.438;2024-02-23T07:09:34;0.97;;;0.50;;
3704;SDS011;1868;48.918;9.438;2024-02-23T07:12:05;1.83;;;0.73;;
3704;SDS011;1868;48.918;9.438;2024-02-23T07:14:38;4.80;;;0.77;;
3704;SDS011;1868;48.918;9.438;2024-02-23T07:17:08;3.63;;;0.87;;
3704;SDS011;1868;48.918;9.438;2024-02-23T07:19:39;3.80;;;0.80;;
3704;SDS011;1868;48.918;9.438;2024-02-23T07:22:09;1.30;;;1.13;;
3704;SDS011;1868;48.918;9.438;2024-02-23T07:24:39;6.30;;;3.63;;
3704;SDS011;1868;48.918;9.438;2024-02-23T07:27:09;9.60;;;5.40;;
3704;SDS011;1868;48.918;9.438;2024-02-23T07:29:37;7.20;;;5.13;;
3704;SDS011;1868;48.918;9.438;2024-02-23T07:32:06;6.63;;;3.70;;
3704;SDS011;1868;48.918;9.438;2024-02-23T07:34:35;3.33;;;2.10;;
3704;SDS011;1868;48.918;9.438;2024-02-23T07:37:06;1.83;;;1.70;;
3704;SDS011;1868;48.918;9.438;2024-02-23T07:39:37;2.33;;;1.10;;
3704;SDS011;1868;48.918;9.438;2024-02-23T07:42:06;2.63;;;1.17;;
3704;SDS011;1868;48.918;9.438;2024-02-23T07:44:37;1.33;;;0.60;;
3704;SDS011;1868;48.918;9.438;2024-02-23T07:47:07;3.17;;;0.80;;
3704;SDS011;1868;48.918;9.438;2024-02-23T07:49:38;0.50;;;0.50;;
3704;SDS011;1868;48.918;9.438;2024-02-23T07:52:07;1.63;;;0.60;;
3704;SDS011;1868;48.918;9.438;2024-02-23T07:54:37;3.00;;;0.73;;
3704;SDS011;1868;48.918;9.438;2024-02-23T07:57:06;2.03;;;0.50;;
3704;SDS011;1868;48.918;9.438;2024-02-23T07:59:35;0.93;;;0.63;;
3704;SDS011;1868;48.918;9.438;2024-02-23T08:02:04;4.53;;;0.83;;
3704;SDS011;1868;48.918;9.438;2024-02-23T08:04:33;0.93;;;0.50;;
3704;SDS011;1868;48.918;9.438;2024-02-23T08:07:04;0.83;;;0.50;;
3704;SDS011;1868;48.918;9.438;2024-02-23T08:09:32;0.70;;;0.60;;
3704;SDS011;1868;48.918;9.438;2024-02-23T08:12:02;1.53;;;0.60;;
3704;SDS011;1868;48.918;9.438;2024-02-23T08:14:31;1.30;;;0.50;;
3704;SDS011;1868;48.918;9.438;2024-02-23T08:17:00;1.13;;;0.33;;
3704;SDS011;1868;48.918;9.438;2024-02-23T08:19:29;1.23;;;0.80;;
3704;SDS011;1868;48.918;9.438;2024-02-23T08:22:00;0.73;;;0.60;;
3704;SDS011;1868;48.918;9.438;2024-02-23T08:24:31;4.87;;;0.90;;
3704;SDS011;1868;48.918;9.438;2024-02-23T08:27:00;1.53;;;0.80;;
3704;SDS011;1868;48.918;9.438;2024-02-23T08:29:29;2.20;;;0.80;;
3704;SDS011;1868;48.918;9.438;2024-02-23T08:31:58;2.20;;;0.73;;
3704;SDS011;1868;48.918;9.438;2024-02-23T08:34:27;3.00;;;0.70;;
3704;SDS011;1868;48.918;9.438;2024-02-23T08:36:56;0.80;;;0.60;;
3704;SDS011;1868;48.918;9.438;2024-02-23T08:39:26;1.33;;;0.50;;
3704;SDS011;1868;48.918;9.438;2024-02-23T08:41:57;5.70;;;0.67;;
3704;SDS011;1868;48.918;9.438;2024-02-23T08:44:26;2.63;;;0.60;;
3704;SDS011;1868;48.918;9.438;2024-02-23T08:46:55;3.90;;;0.80;;
3704;SDS011;1868;48.918;9.438;2024-02-23T08:49:23;0.70;;;0.67;;
3704;SDS011;1868;48.918;9.438;2024-02-23T08:51:52;3.30;;;0.60;;
3704;SDS011;1868;48.918;9.438;2024-02-23T08:54:21;1.90;;;1.10;;
3704;SDS011;1868;48.918;9.438;2024-02-23T08:56:50;1.60;;;0.70;;
3704;SDS011;1868;48.918;9.438;2024-02-23T08:59:20;0.60;;;0.60;;
3704;SDS011;1868;48.918;9.438;2024-02-23T09:01:49;3.80;;;0.73;;
3704;SDS011;1868;48.918;9.438;2024-02-23T09:04:18;0.87;;;0.80;;
3704;SDS011;1868;48.918;9.438;2024-02-23T09:06:46;1.10;;;1.00;;
3704;SDS011;1868;48.918;9.438;2024-02-23T09:09:17;0.80;;;0.80;;
3704;SDS011;1868;48.918;9.438;2024-02-23T09:11:45;1.90;;;1.23;;
3704;SDS011;1868;48.918;9.438;2024-02-23T09:14:14;0.50;;;0.50;;
3704;SDS011;1868;48.918;9.438;2024-02-23T09:16:45;0.80;;;0.80;;
3704;SDS011;1868;48.918;9.438;2024-02-23T09:19:17;3.57;;;1.10;;
3704;SDS011;1868;48.918;9.438;2024-02-23T09:21:47;2.67;;;0.90;;
3704;SDS011;1868;48.918;9.438;2024-02-23T09:24:16;1.70;;;0.50;;
3704;SDS011;1868;48.918;9.438;2024-02-23T09:26:46;0.90;;;0.73;;
3704;SDS011;1868;48.918;9.438;2024-02-23T09:29:14;3.50;;;1.27;;
3704;SDS011;1868;48.918;9.438;2024-02-23T09:31:45;1.90;;;0.83;;
3704;SDS011;1868;48.918;9.438;2024-02-23T09:34:13;2.53;;;0.70;;
3704;SDS011;1868;48.918;9.438;2024-02-23T09:36:43;5.20;;;1.03;;
3704;SDS011;1868;48.918;9.438;2024-02-23T09:39:14;9.17;;;1.30;;
3704;SDS011;1868;48.918;9.438;2024-02-23T09:41:43;2.97;;;1.17;;
3704;SDS011;1868;48.918;9.438;2024-02-23T09:44:12;2.00;;;0.73;;
3704;SDS011;1868;48.918;9.438;2024-02-23T09:46:42;6.77;;;0.87;;
3704;SDS011;1868;48.918;9.438;2024-02-23T09:49:13;1.17;;;0.70;;
3704;SDS011;1868;48.918;9.438;2024-02-23T09:51:44;1.73;;;0.57;;
3704;SDS011;1868;48.918;9.438;2024-02-23T09:54:13;4.67;;;0.93;;
3704;SDS011;1868;48.918;9.438;2024-02-23T09:56:45;3.60;;;0.73;;
3704;SDS011;1868;48.918;9.438;2024-02-23T09:59:14;2.57;;;1.00;;
3704;SDS011;1868;48.918;9.438;2024-02-23T10:01:45;1.17;;;0.80;;
3704;SDS011;1868;48.918;9.438;2024-02-23T10:04:14;2.67;;;1.10;;
3704;SDS011;1868;48.918;9.438;2024-02-23T10:06:44;0.77;;;0.60;;
3704;SDS011;1868;48.918;9.438;2024-02-23T10:09:13;2.50;;;0.63;;
3704;SDS011;1868;48.918;9.438;2024-02-23T10:11:42;2.03;;;0.77;;
3704;SDS011;1868;48.918;9.438;2024-02-23T10:14:11;4.93;;;0.60;;
3704;SDS011;1868;48.918;9.438;2024-02-23T10:16:40;13.53;;;0.93;;
3704;SDS011;1868;48.918;9.438;2024-02-23T10:19:10;2.10;;;0.60;;
3704;SDS011;1868;48.918;9.438;2024-02-23T10:21:39;4.50;;;2.80;;
3704;SDS011;1868;48.918;9.438;2024-02-23T10:24:08;2.50;;;0.90;;
3704;SDS011;1868;48.918;9.438;2024-02-23T10:26:38;6.97;;;1.00;;
3704;SDS011;1868;48.918;9.438;2024-02-23T10:29:08;4.17;;;1.10;;
3704;SDS011;1868;48.918;9.438;2024-02-23T10:31:42;7.33;;;1.03;;
3704;SDS011;1868;48.918;9.438;2024-02-23T10:34:17;2.77;;;1.27;;
3704;SDS011;1868;48.918;9.438;2024-02-23T10:36:47;0.97;;;0.80;;
3704;SDS011;1868;48.918;9.438;2024-02-23T10:39:17;2.30;;;0.87;;
3704;SDS011;1868;48.918;9.438;2024-02-23T10:41:47;3.97;;;1.07;;
3704;SDS011;1868;48.918;9.438;2024-02-23T10:44:26;2.03;;;0.80;;
3704;SDS011;1868;48.918;9.438;2024-02-23T10:46:56;3.00;;;1.10;;
3704;SDS011;1868;48.918;9.438;2024-02-23T10:49:28;1.53;;;0.87;;
3704;SDS011;1868;48.918;9.438;2024-02-23T10:51:57;3.17;;;0.90;;
3704;SDS011;1868;48.918;9.438;2024-02-23T10:54:29;2.60;;;0.70;;
3704;SDS011;1868;48.918;9.438;2024-02-23T10:56:59;8.03;;;1.40;;
3704;SDS011;1868;48.918;9.438;2024-02-23T10:59:30;1.17;;;1.07;;
3704;SDS011;1868;48.918;9.438;2024-02-23T11:01:59;2.03;;;0.90;;
3704;SDS011;1868;48.918;9.438;2024-02-23T11:04:31;1.83;;;1.00;;
3704;SDS011;1868;48.918;9.438;2024-02-23T11:07:01;2.17;;;0.63;;
3704;SDS011;1868;48.918;9.438;2024-02-23T11:09:34;3.47;;;0.73;;
3704;SDS011;1868;48.918;9.438;2024-02-23T11:12:04;5.60;;;3.43;;
3704;SDS011;1868;48.918;9.438;2024-02-23T11:14:34;4.73;;;1.00;;
3704;SDS011;1868;48.918;9.438;2024-02-23T11:17:05;1.80;;;0.80;;
3704;SDS011;1868;48.918;9.438;2024-02-23T11:19:35;1.67;;;0.80;;
3704;SDS011;1868;48.918;9.438;2024-02-23T11:22:09;1.70;;;0.90;;
3704;SDS011;1868;48.918;9.438;2024-02-23T11:24:48;3.63;;;0.90;;
3704;SDS011;1868;48.918;9.438;2024-02-23T11:27:21;3.50;;;0.90;;
3704;SDS011;1868;48.918;9.438;2024-02-23T11:29:58;3.83;;;0.90;;
3704;SDS011;1868;48.918;9.438;2024-02-23T11:32:36;2.87;;;1.30;;
3704;SDS011;1868;48.918;9.438;2024-02-23T11:35:10;2.43;;;0.87;;
3704;SDS011;1868;48.918;9.438;2024-02-23T11:37:46;2.17;;;0.77;;
3704;SDS011;1868;48.918;9.438;2024-02-23T11:40:19;2.00;;;0.90;;
3704;SDS011;1868;48.918;9.438;2024-02-23T11:42:49;3.43;;;0.90;;
3704;SDS011;1868;48.918;9.438;2024-02-23T11:45:19;3.80;;;1.30;;
3704;SDS011;1868;48.918;9.438;2024-02-23T11:47:50;1.33;;;0.87;;
3704;SDS011;1868;48.918;9.438;2024-02-23T11:50:21;3.70;;;0.90;;
3704;SDS011;1868;48.918;9.438;2024-02-23T11:52:50;3.10;;;1.10;;
3704;SDS011;1868;48.918;9.438;2024-02-23T11:55:20;3.47;;;1.20;;
3704;SDS011;1868;48.918;9.438;2024-02-23T11:57:50;1.30;;;0.80;;
3704;SDS011;1868;48.918;9.438;2024-02-23T12:00:33;0.97;;;0.87;;
3704;SDS011;1868;48.918;9.438;2024-02-23T12:03:04;8.93;;;1.37;;
3704;SDS011;1868;48.918;9.438;2024-02-23T12:05:35;1.30;;;0.80;;
3704;SDS011;1868;48.918;9.438;2024-02-23T12:08:05;3.47;;;1.10;;
3704;SDS011;1868;48.918;9.438;2024-02-23T12:10:34;6.93;;;2.90;;
3704;SDS011;1868;48.918;9.438;2024-02-23T12:13:05;5.93;;;0.70;;
3704;SDS011;1868;48.918;9.438;2024-02-23T12:15:34;3.47;;;1.17;;
3704;SDS011;1868;48.918;9.438;2024-02-23T12:18:05;5.90;;;1.20;;
3704;SDS011;1868;48.918;9.438;2024-02-23T12:20:36;4.03;;;0.97;;
3704;SDS011;1868;48.918;9.438;2024-02-23T12:23:04;3.60;;;1.33;;
3704;SDS011;1868;48.918;9.438;2024-02-23T12:25:34;1.90;;;0.70;;
3704;SDS011;1868;48.918;9.438;2024-02-23T12:28:06;2.50;;;0.70;;
3704;SDS011;1868;48.918;9.438;2024-02-23T12:30:34;2.17;;;0.90;;
3704;SDS011;1868;48.918;9.438;2024-02-23T12:33:03;1.93;;;0.97;;
3704;SDS011;1868;48.918;9.438;2024-02-23T12:35:34;4.90;;;1.53;;
3704;SDS011;1868;48.918;9.438;2024-02-23T12:38:04;2.90;;;1.33;;
3704;SDS011;1868;48.918;9.438;2024-02-23T12:40:32;2.30;;;1.10;;
3704;SDS011;1868;48.918;9.438;2024-02-23T12:43:01;2.10;;;0.90;;
3704;SDS011;1868;48.918;9.438;2024-02-23T12:45:32;9.70;;;1.57;;
3704;SDS011;1868;48.918;9.438;2024-02-23T12:48:00;3.20;;;0.97;;
3704;SDS011;1868;48.918;9.438;2024-02-23T12:50:30;2.00;;;0.60;;
3704;SDS011;1868;48.918;9.438;2024-02-23T12:53:00;3.13;;;0.90;;
3704;SDS011;1868;48.918;9.438;2024-02-23T12:55:30;2.03;;;0.70;;
3704;SDS011;1868;48.918;9.438;2024-02-23T12:58:01;3.50;;;1.60;;
3704;SDS011;1868;48.918;9.438;2024-02-23T13:00:29;4.47;;;1.10;;
3704;SDS011;1868;48.918;9.438;2024-02-23T13:02:58;3.10;;;0.87;;
3704;SDS011;1868;48.918;9.438;2024-02-23T13:05:26;4.23;;;0.90;;
3704;SDS011;1868;48.918;9.438;2024-02-23T13:07:56;4.40;;;1.00;;
3704;SDS011;1868;48.918;9.438;2024-02-23T13:10:27;5.87;;;1.27;;
3704;SDS011;1868;48.918;9.438;2024-02-23T13:12:56;5.33;;;0.90;;
3704;SDS011;1868;48.918;9.438;2024-02-23T13:15:24;5.80;;;1.13;;
3704;SDS011;1868;48.918;9.438;2024-02-23T13:17:53;3.50;;;0.93;;
3704;SDS011;1868;48.918;9.438;2024-02-23T13:20:24;5.87;;;1.10;;
3704;SDS011;1868;48.918;9.438;2024-02-23T13:22:53;2.37;;;1.03;;
3704;SDS011;1868;48.918;9.438;2024-02-23T13:25:22;1.43;;;0.97;;
3704;SDS011;1868;48.918;9.438;2024-02-23T13:27:53;4.90;;;1.13;;
3704;SDS011;1868;48.918;9.438;2024-02-23T13:30:22;6.00;;;1.03;;
3704;SDS011;1868;48.918;9.438;2024-02-23T13:32:53;2.40;;;0.93;;
3704;SDS011;1868;48.918;9.438;2024-02-23T13:35:22;3.80;;;1.10;;
3704;SDS011;1868;48.918;9.438;2024-02-23T13:37:51;4.70;;;1.00;;
3704;SDS011;1868;48.918;9.438;2024-02-23T13:40:21;3.10;;;0.93;;
3704;SDS011;1868;48.918;9.438;2024-02-23T13:42:49;5.37;;;1.30;;
3704;SDS011;1868;48.918;9.438;2024-02-23T13:45:23;3.80;;;1.03;;
3704;SDS011;1868;48.918;9.438;2024-02-23T13:47:56;4.87;;;1.40;;
3704;SDS011;1868;48.918;9.438;2024-02-23T13:50:26;8.47;;;0.97;;
3704;SDS011;1868;48.918;9.438;2024-02-23T13:52:57;3.70;;;1.10;;
3704;SDS011;1868;48.918;9.438;2024-02-23T13:55:28;3.13;;;1.40;;
3704;SDS011;1868;48.918;9.438;2024-02-23T13:58:01;7.10;;;1.40;;
3704;SDS011;1868;48.918;9.438;2024-02-23T14:00:30;3.53;;;1.10;;
3704;SDS011;1868;48.918;9.438;2024-02-23T14:02:59;1.90;;;1.30;;
3704;SDS011;1868;48.918;9.438;2024-02-23T14:05:28;6.00;;;3.87;;
3704;SDS011;1868;48.918;9.438;2024-02-23T14:07:57;10.03;;;6.30;;
3704;SDS011;1868;48.918;9.438;2024-02-23T14:10:26;4.03;;;1.80;;
3704;SDS011;1868;48.918;9.438;2024-02-23T14:12:55;5.20;;;1.90;;
3704;SDS011;1868;48.918;9.438;2024-02-23T14:15:26;4.10;;;1.50;;
3704;SDS011;1868;48.918;9.438;2024-02-23T14:17:55;6.27;;;1.40;;
3704;SDS011;1868;48.918;9.438;2024-02-23T14:20:24;4.63;;;1.40;;
3704;SDS011;1868;48.918;9.438;2024-02-23T14:22:55;4.00;;;1.00;;
3704;SDS011;1868;48.918;9.438;2024-02-23T14:25:24;6.10;;;1.07;;
3704;SDS011;1868;48.918;9.438;2024-02-23T14:27:54;4.63;;;1.60;;
3704;SDS011;1868;48.918;9.438;2024-02-23T14:30:24;6.10;;;1.07;;
3704;SDS011;1868;48.918;9.438;2024-02-23T14:32:54;3.47;;;0.90;;
3704;SDS011;1868;48.918;9.438;2024-02-23T14:35:23;3.07;;;0.97;;
3704;SDS011;1868;48.918;9.438;2024-02-23T14:37:52;6.50;;;1.50;;
3704;SDS011;1868;48.918;9.438;2024-02-23T14:40:21;6.13;;;1.30;;
3704;SDS011;1868;48.918;9.438;2024-02-23T14:42:50;3.03;;;1.23;;
3704;SDS011;1868;48.918;9.438;2024-02-23T14:45:19;5.13;;;1.50;;
3704;SDS011;1868;48.918;9.438;2024-02-23T14:47:50;4.70;;;1.33;;
3704;SDS011;1868;48.918;9.438;2024-02-23T14:50:20;13.90;;;1.60;;
3704;SDS011;1868;48.918;9.438;2024-02-23T14:52:50;4.07;;;1.63;;
3704;SDS011;1868;48.918;9.438;2024-02-23T14:55:19;8.07;;;1.63;;
3704;SDS011;1868;48.918;9.438;2024-02-23T14:57:48;3.23;;;1.20;;
3704;SDS011;1868;48.918;9.438;2024-02-23T15:00:19;4.17;;;1.07;;
3704;SDS011;1868;48.918;9.438;2024-02-23T15:02:48;6.47;;;1.47;;
3704;SDS011;1868;48.918;9.438;2024-02-23T15:05:19;7.90;;;1.30;;
3704;SDS011;1868;48.918;9.438;2024-02-23T15:07:49;4.07;;;1.37;;
3704;SDS011;1868;48.918;9.438;2024-02-23T15:10:18;4.30;;;1.13;;
3704;SDS011;1868;48.918;9.438;2024-02-23T15:12:47;3.63;;;1.30;;
3704;SDS011;1868;48.918;9.438;2024-02-23T15:15:16;4.30;;;1.57;;
3704;SDS011;1868;48.918;9.438;2024-02-23T15:17:45;3.00;;;0.90;;
3704;SDS011;1868;48.918;9.438;2024-02-23T15:20:16;2.30;;;1.00;;
3704;SDS011;1868;48.918;9.438;2024-02-23T15:22:48;7.30;;;2.17;;
3704;SDS011;1868;48.918;9.438;2024-02-23T15:25:24;5.60;;;1.07;;
3704;SDS011;1868;48.918;9.438;2024-02-23T15:27:56;3.93;;;1.20;;
3704;SDS011;1868;48.918;9.438;2024-02-23T15:30:25;8.70;;;1.83;;
3704;SDS011;1868;48.918;9.438;2024-02-23T15:32:54;2.10;;;1.23;;